Time;durP1;ratioP1;P1;durP2;ratioP2;P2;SDS_P1;SDS_P2;PMS_P1;PMS_P2;Temp;Humidity;BMP_temperature;BMP_pressure;BME280_temperature;BME280_humidity;BME280_pressure;Samples;Min_cycle;Max_cycle;Signal;HPM_P1;HPM_P2
2023/04/12 00:00:34;;;;;;;4.03;1.73;;;5.40;99.90;;;;;;4966264;28;20203;-66
2023/04/12 00:03:02;;;;;;;2.40;2.07;;;5.40;99.90;;;;;;4964953;28;20206;-67
2023/04/12 00:05:28;;;;;;;4.07;2.67;;;5.30;99.90;;;;;;4970352;28;20652;-66
2023/04/12 00:07:53;;;;;;;3.67;2.60;;;5.30;99.90;;;;;;4964013;28;20206;-67
2023/04/12 00:10:20;;;;;;;3.43;2.03;;;5.30;99.90;;;;;;4975064;28;20200;-66
2023/04/12 00:12:46;;;;;;;6.77;2.80;;;5.20;99.90;;;;;;4964403;28;20667;-66
2023/04/12 00:15:12;;;;;;;7.03;2.83;;;5.20;99.90;;;;;;4965950;28;20469;-67
2023/04/12 00:17:38;;;;;;;5.90;2.43;;;5.20;99.90;;;;;;4965948;28;20271;-66
2023/04/12 00:20:11;;;;;;;9.97;2.40;;;5.20;99.90;;;;;;4966540;28;20604;-67
2023/04/12 00:22:37;;;;;;;6.27;2.40;;;5.20;99.90;;;;;;4961571;28;20252;-65
2023/04/12 00:25:03;;;;;;;4.60;2.20;;;5.10;99.90;;;;;;4965083;28;20288;-66
2023/04/12 00:27:28;;;;;;;3.33;2.33;;;5.10;99.90;;;;;;4966754;28;20268;-66
2023/04/12 00:29:53;;;;;;;4.07;2.07;;;5.10;99.90;;;;;;4969304;28;20200;-65
2023/04/12 00:32:19;;;;;;;9.63;2.37;;;5.00;99.90;;;;;;4973944;28;20242;-65
2023/04/12 00:34:45;;;;;;;7.07;2.33;;;5.00;99.90;;;;;;4967933;28;20532;-66
2023/04/12 00:37:10;;;;;;;5.27;2.33;;;4.90;99.90;;;;;;4964803;28;20224;-67
2023/04/12 00:39:35;;;;;;;3.07;2.10;;;4.90;99.90;;;;;;4976219;28;20193;-67
2023/04/12 00:42:04;;;;;;;4.03;2.17;;;4.90;99.90;;;;;;4968090;28;20201;-67
2023/04/12 00:44:31;;;;;;;4.47;1.87;;;4.90;99.90;;;;;;4964814;28;21021;-67
2023/04/12 00:46:57;;;;;;;3.17;2.13;;;4.90;99.90;;;;;;4962094;28;20288;-67
2023/04/12 00:49:23;;;;;;;2.80;1.93;;;4.80;99.90;;;;;;4966230;28;20205;-65
2023/04/12 00:51:50;;;;;;;4.10;2.43;;;4.80;99.90;;;;;;4966106;28;20224;-65
2023/04/12 00:54:17;;;;;;;2.87;2.50;;;4.80;99.90;;;;;;4967200;28;20933;-66
2023/04/12 00:56:44;;;;;;;4.57;2.07;;;4.80;99.90;;;;;;4967182;28;20201;-67
2023/04/12 00:59:10;;;;;;;2.87;2.30;;;4.80;99.90;;;;;;4967339;28;20201;-66
2023/04/12 01:01:37;;;;;;;3.77;2.27;;;4.80;99.90;;;;;;4971459;28;20207;-67
2023/04/12 01:04:03;;;;;;;3.97;2.30;;;4.80;99.90;;;;;;4971099;28;20201;-66
2023/04/12 01:07:08;;;;;;;2.33;2.13;;;4.80;99.90;;;;;;4972884;28;20207;-69
2023/04/12 01:09:56;;;;;;;4.60;2.20;;;4.70;99.90;;;;;;4953112;28;20668;-68
2023/04/12 01:12:33;;;;;;;5.83;2.10;;;4.70;99.90;;;;;;4972244;28;20735;-66
2023/04/12 01:15:04;;;;;;;4.43;2.33;;;4.70;99.90;;;;;;4976523;28;20208;-66
2023/04/12 01:17:36;;;;;;;3.47;2.33;;;4.70;99.90;;;;;;4972538;28;20235;-66
2023/04/12 01:20:12;;;;;;;4.43;2.93;;;4.60;99.90;;;;;;4970263;28;20275;-66
2023/04/12 01:23:16;;;;;;;3.67;2.33;;;4.60;99.90;;;;;;4970475;28;20238;-66
2023/04/12 01:25:47;;;;;;;4.10;2.47;;;4.60;99.90;;;;;;4970312;28;20208;-66
2023/04/12 01:28:25;;;;;;;3.53;2.20;;;4.60;99.90;;;;;;4973115;28;20200;-66
2023/04/12 01:30:50;;;;;;;2.70;2.40;;;4.60;99.90;;;;;;4972305;28;20208;-66
2023/04/12 01:33:17;;;;;;;2.67;1.93;;;4.60;99.90;;;;;;4974110;28;20231;-66
2023/04/12 01:35:43;;;;;;;4.30;2.60;;;4.50;99.90;;;;;;4970095;28;20200;-66
2023/04/12 01:38:09;;;;;;;7.43;2.67;;;4.50;99.90;;;;;;4971888;28;20217;-66
2023/04/12 01:40:35;;;;;;;4.90;2.23;;;4.50;99.90;;;;;;4970640;28;20205;-67
2023/04/12 01:43:05;;;;;;;3.23;2.30;;;4.50;99.90;;;;;;4975688;28;20773;-67
2023/04/12 01:45:31;;;;;;;5.03;2.40;;;4.40;99.90;;;;;;4970534;28;20262;-67
2023/04/12 01:47:57;;;;;;;3.30;2.30;;;4.40;99.90;;;;;;4973912;28;20205;-66
2023/04/12 01:50:33;;;;;;;2.80;1.90;;;4.40;99.90;;;;;;4970918;28;20251;-66
2023/04/12 01:53:13;;;;;;;7.27;2.43;;;4.40;99.90;;;;;;4972269;28;20196;-66
2023/04/12 01:55:41;;;;;;;3.93;2.83;;;4.40;99.90;;;;;;4971244;28;20687;-66
2023/04/12 01:58:08;;;;;;;5.63;2.57;;;4.40;99.90;;;;;;4973403;28;20312;-67
2023/04/12 02:00:36;;;;;;;3.23;2.47;;;4.40;99.90;;;;;;4973338;28;20248;-66
2023/04/12 02:03:02;;;;;;;5.77;2.17;;;4.40;99.90;;;;;;4973082;28;20196;-66
2023/04/12 02:05:28;;;;;;;6.17;2.77;;;4.30;99.90;;;;;;4971007;28;20832;-66
2023/04/12 02:07:54;;;;;;;2.70;2.47;;;4.40;99.90;;;;;;4972497;28;20208;-66
2023/04/12 02:10:30;;;;;;;2.50;2.27;;;4.40;99.90;;;;;;4972315;28;20216;-66
2023/04/12 02:13:00;;;;;;;2.97;2.23;;;4.40;99.90;;;;;;4966955;28;20212;-66
2023/04/12 02:15:29;;;;;;;2.43;2.23;;;4.40;99.90;;;;;;4973241;28;20758;-65
2023/04/12 02:17:55;;;;;;;3.27;2.33;;;4.40;99.90;;;;;;4970449;28;20933;-65
2023/04/12 02:20:22;;;;;;;6.10;2.60;;;4.40;99.90;;;;;;4967858;28;20275;-65
2023/04/12 02:22:48;;;;;;;4.37;2.00;;;4.40;99.90;;;;;;4970402;28;20212;-65
2023/04/12 02:25:16;;;;;;;3.80;2.63;;;4.40;99.90;;;;;;4968354;28;20259;-66
2023/04/12 02:27:42;;;;;;;3.80;2.33;;;4.30;99.90;;;;;;4969263;28;20256;-66
2023/04/12 02:30:08;;;;;;;5.00;2.53;;;4.30;99.90;;;;;;4970332;28;20205;-67
2023/04/12 02:32:42;;;;;;;2.20;1.83;;;4.30;99.90;;;;;;4973737;28;20229;-67
2023/04/12 02:35:09;;;;;;;4.73;2.57;;;4.30;99.90;;;;;;4970271;28;20552;-66
2023/04/12 02:37:35;;;;;;;3.10;2.33;;;4.30;99.90;;;;;;4967088;28;20225;-66
2023/04/12 02:40:01;;;;;;;4.43;2.83;;;4.20;99.90;;;;;;4967029;28;20253;-66
2023/04/12 02:42:27;;;;;;;4.87;2.67;;;4.20;99.90;;;;;;4970277;28;20201;-66
2023/04/12 02:44:52;;;;;;;6.13;2.50;;;4.20;99.90;;;;;;4952024;28;20209;-66
2023/04/12 02:47:18;;;;;;;6.20;2.67;;;4.20;99.90;;;;;;4966201;28;20303;-66
2023/04/12 02:49:43;;;;;;;2.83;2.07;;;4.10;99.90;;;;;;4968346;28;20213;-66
2023/04/12 02:52:09;;;;;;;3.80;2.77;;;4.10;99.90;;;;;;4968175;28;20665;-66
2023/04/12 02:54:34;;;;;;;3.90;2.57;;;4.10;99.90;;;;;;4970657;28;20301;-66
2023/04/12 02:57:00;;;;;;;3.63;2.67;;;4.10;99.90;;;;;;4969328;28;20232;-67
2023/04/12 02:59:26;;;;;;;2.83;2.63;;;4.10;99.90;;;;;;4963098;28;20197;-67
2023/04/12 03:01:51;;;;;;;4.57;2.80;;;4.10;99.90;;;;;;4969019;28;20208;-66
2023/04/12 03:04:17;;;;;;;3.20;2.30;;;4.00;99.90;;;;;;4968840;28;20198;-66
2023/04/12 03:06:51;;;;;;;3.20;2.67;;;4.00;99.90;;;;;;4969049;28;20213;-66
2023/04/12 03:09:17;;;;;;;3.37;3.03;;;4.00;99.90;;;;;;4968610;28;20839;-67
2023/04/12 03:11:42;;;;;;;5.47;2.73;;;4.00;99.90;;;;;;4966440;28;20200;-67
2023/04/12 03:14:08;;;;;;;7.67;3.53;;;4.00;99.90;;;;;;4967634;28;20262;-67
2023/04/12 03:16:34;;;;;;;3.43;3.13;;;4.00;99.90;;;;;;4967548;28;20199;-68
2023/04/12 03:18:59;;;;;;;5.17;3.00;;;4.00;99.90;;;;;;4967882;28;20220;-67
2023/04/12 03:21:27;;;;;;;3.40;3.10;;;4.00;99.90;;;;;;4967313;28;20202;-67
2023/04/12 03:23:52;;;;;;;3.90;3.30;;;4.00;99.90;;;;;;4966815;28;20201;-67
2023/04/12 03:26:19;;;;;;;4.90;2.87;;;4.00;99.90;;;;;;4968203;28;20542;-67
2023/04/12 03:28:48;;;;;;;3.60;2.63;;;4.00;99.90;;;;;;4968465;28;20685;-68
2023/04/12 03:31:14;;;;;;;3.90;3.43;;;4.00;99.90;;;;;;4967627;28;20196;-67
2023/04/12 03:33:39;;;;;;;5.37;4.00;;;4.00;99.90;;;;;;4949361;28;20778;-66
2023/04/12 03:36:06;;;;;;;4.20;2.90;;;4.00;99.90;;;;;;4970521;28;20201;-67
2023/04/12 03:38:31;;;;;;;5.77;4.17;;;3.90;99.90;;;;;;4977034;28;20248;-70
2023/04/12 03:40:57;;;;;;;7.00;3.57;;;3.90;99.90;;;;;;4977509;28;20291;-70
2023/04/12 03:43:22;;;;;;;6.00;2.97;;;3.90;99.90;;;;;;4977531;28;20203;-67
2023/04/12 03:45:48;;;;;;;5.17;3.20;;;3.90;99.90;;;;;;4980320;28;20215;-67
2023/04/12 03:48:15;;;;;;;2.97;2.60;;;3.80;99.90;;;;;;4970298;28;20205;-68
2023/04/12 03:50:43;;;;;;;6.23;3.33;;;3.80;99.90;;;;;;4977404;28;20236;-68
2023/04/12 03:53:09;;;;;;;3.30;3.00;;;3.80;99.90;;;;;;4976996;28;20208;-68
2023/04/12 03:55:36;;;;;;;4.80;3.37;;;3.80;99.90;;;;;;4976366;28;20208;-68
2023/04/12 03:58:02;;;;;;;6.03;3.50;;;3.80;99.90;;;;;;4974437;28;20244;-69
2023/04/12 04:00:28;;;;;;;4.33;2.83;;;3.80;99.90;;;;;;4967310;28;20197;-66
2023/04/12 04:02:53;;;;;;;7.57;4.10;;;3.80;99.90;;;;;;4970802;28;20211;-67
2023/04/12 04:05:19;;;;;;;5.40;3.37;;;3.80;99.90;;;;;;4968353;28;20197;-66
2023/04/12 04:07:44;;;;;;;4.23;3.53;;;3.70;99.90;;;;;;4969475;28;20275;-67
2023/04/12 04:10:10;;;;;;;10.00;3.27;;;3.70;99.90;;;;;;4965347;28;20677;-66
2023/04/12 04:12:36;;;;;;;6.97;4.07;;;3.70;99.90;;;;;;4967334;28;20205;-66
2023/04/12 04:15:01;;;;;;;9.63;3.80;;;3.70;99.90;;;;;;4966195;28;20683;-66
2023/04/12 04:17:27;;;;;;;4.17;3.00;;;3.70;99.90;;;;;;4965458;28;20212;-67
2023/04/12 04:19:52;;;;;;;6.23;3.87;;;3.70;99.90;;;;;;4965417;28;20211;-66
2023/04/12 04:22:20;;;;;;;5.53;4.30;;;3.70;99.90;;;;;;4948850;28;20291;-66
2023/04/12 04:24:47;;;;;;;3.53;3.17;;;3.80;99.90;;;;;;4964293;28;20208;-67
2023/04/12 04:27:14;;;;;;;7.83;3.37;;;3.80;99.90;;;;;;4969216;28;20206;-66
2023/04/12 04:29:44;;;;;;;5.60;3.50;;;3.70;99.90;;;;;;4969011;28;20208;-66
2023/04/12 04:32:10;;;;;;;6.43;4.20;;;3.70;99.90;;;;;;4966766;28;20300;-67
2023/04/12 04:34:35;;;;;;;5.27;3.60;;;3.70;99.90;;;;;;4964995;28;20215;-68
2023/04/12 04:37:01;;;;;;;4.33;3.90;;;3.70;99.90;;;;;;4965720;28;20199;-68
2023/04/12 04:39:27;;;;;;;4.77;3.03;;;3.70;99.90;;;;;;4966586;28;20710;-66
2023/04/12 04:41:53;;;;;;;8.13;3.30;;;3.80;99.90;;;;;;4968895;28;20285;-67
2023/04/12 04:44:20;;;;;;;4.83;3.37;;;3.80;99.90;;;;;;4966758;28;20291;-65
2023/04/12 04:46:47;;;;;;;5.23;3.23;;;3.80;99.90;;;;;;4966045;28;20200;-66
2023/04/12 04:49:13;;;;;;;6.47;3.43;;;3.80;99.90;;;;;;4964328;28;20250;-67
2023/04/12 04:51:38;;;;;;;7.00;3.87;;;3.90;99.90;;;;;;4968671;28;20315;-65
2023/04/12 04:54:04;;;;;;;10.10;4.00;;;3.90;99.90;;;;;;4966659;28;20275;-66
2023/04/12 04:56:31;;;;;;;5.20;4.23;;;4.00;99.90;;;;;;4965236;28;20335;-67
2023/04/12 04:58:57;;;;;;;8.43;3.60;;;4.00;99.90;;;;;;4970456;28;20290;-70
2023/04/12 05:01:26;;;;;;;6.97;3.77;;;4.10;99.90;;;;;;4964588;28;20198;-70
2023/04/12 05:03:54;;;;;;;5.70;4.00;;;4.20;99.90;;;;;;4969110;28;20212;-69
2023/04/12 05:06:19;;;;;;;4.50;3.63;;;4.20;99.90;;;;;;4966224;28;20291;-69
2023/04/12 05:08:45;;;;;;;7.47;3.60;;;4.20;99.90;;;;;;4948449;28;20622;-69
2023/04/12 05:11:10;;;;;;;7.60;4.57;;;4.20;99.90;;;;;;4964388;28;20201;-69
2023/04/12 05:13:36;;;;;;;4.50;4.10;;;4.20;99.90;;;;;;4968783;28;20205;-66
2023/04/12 05:16:06;;;;;;;6.07;5.10;;;4.30;99.90;;;;;;4968999;28;20317;-67
2023/04/12 05:18:32;;;;;;;4.63;4.23;;;4.30;99.90;;;;;;4965857;28;20221;-68
2023/04/12 05:21:02;;;;;;;6.47;5.67;;;4.30;99.90;;;;;;4966805;28;20201;-71
2023/04/12 05:23:28;;;;;;;6.07;4.53;;;4.30;99.90;;;;;;4966884;28;20200;-68
2023/04/12 05:25:54;;;;;;;4.60;4.20;;;4.40;99.90;;;;;;4966730;28;20286;-67
2023/04/12 05:28:19;;;;;;;7.50;4.30;;;4.50;99.90;;;;;;4966118;28;20291;-67
2023/04/12 05:30:45;;;;;;;6.77;4.00;;;4.50;99.90;;;;;;4965415;28;20204;-67
2023/04/12 05:33:10;;;;;;;5.43;4.13;;;4.60;99.90;;;;;;4966598;28;20236;-67
2023/04/12 05:35:36;;;;;;;7.67;4.47;;;4.60;99.90;;;;;;4971889;28;20557;-67
2023/04/12 05:38:02;;;;;;;6.97;4.47;;;4.70;99.90;;;;;;4964825;28;20201;-67
2023/04/12 05:40:30;;;;;;;6.00;4.53;;;4.70;99.90;;;;;;4966263;28;20662;-67
2023/04/12 05:42:56;;;;;;;4.77;4.27;;;4.80;99.90;;;;;;4966359;28;20940;-67
2023/04/12 05:45:21;;;;;;;6.97;4.27;;;4.80;99.90;;;;;;4964420;28;20197;-67
2023/04/12 05:47:46;;;;;;;6.00;4.00;;;4.90;99.90;;;;;;4967890;28;20207;-70
2023/04/12 05:50:12;;;;;;;5.87;4.20;;;5.00;99.90;;;;;;4970466;28;20236;-67
2023/04/12 05:52:37;;;;;;;6.03;4.07;;;5.10;99.90;;;;;;4967315;28;20634;-68
2023/04/12 05:55:04;;;;;;;6.40;4.10;;;5.20;99.90;;;;;;4968186;28;20201;-68
2023/04/12 05:57:29;;;;;;;6.93;4.00;;;5.30;99.90;;;;;;4971218;28;20224;-66
2023/04/12 05:59:55;;;;;;;4.87;3.73;;;5.40;99.90;;;;;;4968605;28;20194;-68
2023/04/12 06:02:21;;;;;;;6.40;4.07;;;5.50;99.90;;;;;;4972482;28;20225;-68
2023/04/12 06:04:47;;;;;;;6.47;3.83;;;5.70;99.90;;;;;;4969038;28;20197;-67
2023/04/12 06:07:15;;;;;;;9.63;3.77;;;5.80;99.90;;;;;;4968251;28;20755;-68
2023/04/12 06:09:41;;;;;;;4.20;3.43;;;5.90;99.90;;;;;;4970163;28;20201;-68
2023/04/12 06:12:07;;;;;;;6.97;3.53;;;6.10;99.90;;;;;;4967445;28;20196;-67
2023/04/12 06:14:32;;;;;;;8.23;4.10;;;6.20;99.90;;;;;;4973356;28;20279;-67
2023/04/12 06:16:58;;;;;;;10.67;3.93;;;6.20;99.90;;;;;;4968230;28;20194;-70
2023/04/12 06:19:23;;;;;;;5.53;3.90;;;6.30;99.90;;;;;;4970910;28;20201;-70
2023/04/12 06:21:50;;;;;;;5.37;3.37;;;6.40;99.90;;;;;;4969589;28;20280;-71
2023/04/12 06:24:15;;;;;;;5.17;3.17;;;6.50;99.90;;;;;;4969899;28;20946;-66
2023/04/12 06:26:45;;;;;;;6.90;3.67;;;6.60;99.90;;;;;;4966445;28;20205;-67
2023/04/12 06:29:11;;;;;;;5.10;3.10;;;6.70;99.90;;;;;;4969947;28;20672;-67
2023/04/12 06:31:36;;;;;;;7.83;4.27;;;6.80;99.90;;;;;;4968214;28;20663;-67
2023/04/12 06:34:02;;;;;;;7.33;3.87;;;7.00;99.90;;;;;;4967999;28;20667;-67
2023/04/12 06:36:28;;;;;;;5.17;3.60;;;7.20;99.90;;;;;;4968427;28;20244;-68
2023/04/12 06:38:54;;;;;;;10.33;3.63;;;7.30;99.90;;;;;;4969428;28;20212;-67
2023/04/12 06:41:20;;;;;;;4.97;3.73;;;7.40;99.90;;;;;;4969353;28;20583;-67
2023/04/12 06:43:46;;;;;;;7.53;3.87;;;7.50;99.90;;;;;;4950714;28;20209;-67
2023/04/12 06:46:14;;;;;;;8.07;3.20;;;7.70;99.90;;;;;;4968829;28;20201;-67
2023/04/12 06:48:40;;;;;;;7.20;2.77;;;7.80;99.90;;;;;;4967509;28;20235;-67
2023/04/12 06:51:06;;;;;;;7.20;2.43;;;7.90;99.90;;;;;;4969128;28;20212;-67
2023/04/12 06:53:33;;;;;;;6.03;3.00;;;8.00;99.90;;;;;;4968593;28;20209;-68
2023/04/12 06:56:03;;;;;;;4.53;3.07;;;8.10;99.90;;;;;;4969588;28;20413;-67
2023/04/12 06:58:29;;;;;;;6.60;3.43;;;8.10;99.90;;;;;;4964541;28;20333;-68
2023/04/12 07:01:04;;;;;;;4.77;3.20;;;8.10;99.90;;;;;;4967539;28;20289;-68
2023/04/12 07:03:32;;;;;;;8.97;2.80;;;8.20;99.90;;;;;;4968973;28;21170;-68
2023/04/12 07:05:58;;;;;;;6.70;2.77;;;8.30;99.90;;;;;;4967315;28;20334;-68
2023/04/12 07:08:24;;;;;;;4.30;2.73;;;8.40;99.90;;;;;;4970822;28;20215;-67
2023/04/12 07:10:54;;;;;;;5.90;2.80;;;8.60;99.90;;;;;;4969782;28;20207;-69
2023/04/12 07:13:19;;;;;;;6.47;2.33;;;8.60;99.90;;;;;;4967750;28;20616;-69
2023/04/12 07:15:46;;;;;;;10.67;3.47;;;8.70;99.90;;;;;;4966784;28;20562;-67
2023/04/12 07:18:11;;;;;;;3.67;3.03;;;8.80;99.90;;;;;;4968555;28;20686;-69
2023/04/12 07:20:37;;;;;;;3.17;2.93;;;8.90;99.90;;;;;;4966386;28;20213;-68
2023/04/12 07:23:02;;;;;;;3.43;2.30;;;8.90;99.90;;;;;;4968675;28;20360;-68
2023/04/12 07:25:28;;;;;;;5.03;2.53;;;9.00;99.90;;;;;;4969328;28;20247;-68
2023/04/12 07:27:53;;;;;;;5.20;2.17;;;9.00;99.90;;;;;;4965633;28;20195;-68
2023/04/12 07:30:19;;;;;;;4.57;2.07;;;9.00;99.90;;;;;;4970084;28;20263;-67
2023/04/12 07:32:44;;;;;;;6.07;2.30;;;9.00;99.90;;;;;;4966387;28;20595;-67
2023/04/12 07:35:10;;;;;;;5.43;2.10;;;9.20;99.90;;;;;;4967608;28;20254;-67
2023/04/12 07:37:36;;;;;;;4.13;1.97;;;9.30;99.90;;;;;;4966604;28;20314;-68
2023/04/12 07:40:02;;;;;;;3.77;1.97;;;9.50;99.90;;;;;;4967572;28;20284;-67
2023/04/12 07:42:28;;;;;;;2.97;2.00;;;9.60;99.90;;;;;;4967231;28;20318;-67
2023/04/12 07:44:53;;;;;;;3.83;2.30;;;9.70;99.90;;;;;;4971558;28;20671;-67
2023/04/12 07:47:19;;;;;;;2.73;1.70;;;9.70;99.90;;;;;;4963740;28;20522;-68
2023/04/12 07:49:44;;;;;;;5.83;2.33;;;9.80;99.90;;;;;;4969844;28;20202;-67
2023/04/12 07:52:10;;;;;;;4.33;2.57;;;9.90;99.90;;;;;;4964128;28;20288;-67
2023/04/12 07:54:36;;;;;;;7.37;2.33;;;9.80;99.90;;;;;;4968006;28;20801;-68
2023/04/12 07:57:02;;;;;;;2.90;2.20;;;9.80;99.90;;;;;;4967807;28;20288;-69
2023/04/12 07:59:29;;;;;;;3.50;2.20;;;9.80;99.90;;;;;;4968214;28;20204;-69
2023/04/12 08:01:55;;;;;;;5.17;2.60;;;9.90;99.90;;;;;;4974892;28;20508;-68
2023/04/12 08:04:20;;;;;;;3.93;2.37;;;10.00;99.90;;;;;;4976834;28;20256;-68
2023/04/12 08:06:46;;;;;;;2.17;2.00;;;10.10;99.90;;;;;;4966491;28;20227;-67
2023/04/12 08:09:11;;;;;;;2.70;1.90;;;10.10;99.90;;;;;;4966653;28;20201;-67
2023/04/12 08:11:37;;;;;;;1.90;1.67;;;10.20;99.60;;;;;;4966058;28;20197;-69
2023/04/12 08:14:02;;;;;;;6.03;2.03;;;10.20;99.80;;;;;;4967518;28;20290;-69
2023/04/12 08:16:28;;;;;;;4.70;1.70;;;10.20;99.90;;;;;;4965330;28;20205;-69
2023/04/12 08:18:53;;;;;;;3.33;2.40;;;10.30;99.40;;;;;;4967740;28;20344;-69
2023/04/12 08:21:19;;;;;;;4.40;2.33;;;10.30;99.40;;;;;;4969721;28;20297;-67
2023/04/12 08:23:44;;;;;;;3.83;2.30;;;10.30;98.50;;;;;;4965754;28;20764;-67
2023/04/12 08:26:10;;;;;;;5.73;1.83;;;10.40;98.40;;;;;;4967297;28;20198;-67
2023/04/12 08:28:35;;;;;;;2.67;1.43;;;10.40;97.80;;;;;;4967134;28;20214;-68
2023/04/12 08:31:02;;;;;;;3.63;1.30;;;10.50;97.80;;;;;;4966479;28;20710;-67
2023/04/12 08:33:27;;;;;;;2.17;1.17;;;10.70;97.70;;;;;;4967057;28;20249;-68
2023/04/12 08:35:53;;;;;;;3.60;1.37;;;10.70;96.70;;;;;;4969225;28;20636;-67
2023/04/12 08:38:19;;;;;;;1.57;1.30;;;10.80;95.90;;;;;;4972212;28;20611;-67
2023/04/12 08:40:46;;;;;;;1.63;1.30;;;10.80;95.00;;;;;;4966172;28;20191;-69
2023/04/12 08:43:13;;;;;;;3.83;1.60;;;10.70;94.80;;;;;;4966345;28;20200;-67
2023/04/12 08:45:38;;;;;;;6.07;1.80;;;10.80;95.00;;;;;;4968802;28;20198;-67
2023/04/12 08:48:04;;;;;;;2.87;1.50;;;11.00;94.50;;;;;;4963082;28;20237;-67
2023/04/12 08:50:31;;;;;;;1.47;1.30;;;11.00;94.00;;;;;;4966691;28;20209;-67
2023/04/12 08:52:58;;;;;;;3.20;1.20;;;11.10;94.20;;;;;;4966540;28;20215;-66
2023/04/12 08:55:24;;;;;;;3.30;2.37;;;11.20;93.30;;;;;;4966567;28;20208;-67
2023/04/12 08:57:52;;;;;;;2.97;1.60;;;11.20;93.70;;;;;;4964387;28;20215;-67
2023/04/12 09:00:19;;;;;;;3.70;1.17;;;11.30;92.60;;;;;;4965721;28;20198;-69
2023/04/12 09:02:47;;;;;;;7.57;2.33;;;11.30;92.40;;;;;;4966364;28;20647;-67
2023/04/12 09:05:13;;;;;;;9.73;3.67;;;11.30;92.20;;;;;;4966457;28;20438;-67
2023/04/12 09:07:40;;;;;;;5.30;1.40;;;11.40;92.60;;;;;;4966523;28;20283;-67
2023/04/12 09:10:05;;;;;;;5.93;2.70;;;11.50;92.20;;;;;;4965869;28;20237;-67
2023/04/12 09:12:31;;;;;;;4.40;1.60;;;11.60;91.80;;;;;;4966252;28;20216;-68
2023/04/12 09:15:08;;;;;;;1.33;0.90;;;11.70;91.30;;;;;;4968403;28;20677;-67
2023/04/12 09:17:35;;;;;;;8.57;2.40;;;11.80;90.50;;;;;;4966489;28;20305;-68
2023/04/12 09:20:22;;;;;;;1.57;1.13;;;11.80;90.60;;;;;;4966943;28;20259;-68
2023/04/12 09:22:48;;;;;;;4.90;1.90;;;11.90;90.30;;;;;;4968987;28;20292;-67
2023/04/12 09:25:14;;;;;;;8.90;3.17;;;11.90;89.50;;;;;;4968519;28;20200;-67
2023/04/12 09:27:51;;;;;;;5.83;1.20;;;11.90;88.50;;;;;;4970032;28;20217;-67
2023/04/12 09:30:18;;;;;;;3.67;1.63;;;12.00;87.70;;;;;;4970056;28;20199;-70
2023/04/12 09:32:44;;;;;;;4.50;1.47;;;12.00;88.60;;;;;;4967889;28;20236;-68
2023/04/12 09:35:10;;;;;;;4.17;1.60;;;12.00;89.30;;;;;;4969671;28;20245;-68
2023/04/12 09:37:35;;;;;;;3.30;1.80;;;12.00;86.30;;;;;;4969019;28;20220;-68
2023/04/12 09:40:03;;;;;;;4.50;1.60;;;12.20;87.60;;;;;;4972166;28;20725;-69
2023/04/12 09:42:29;;;;;;;4.57;2.03;;;12.20;85.50;;;;;;4948711;28;20299;-67
2023/04/12 09:44:56;;;;;;;6.33;2.00;;;12.20;87.00;;;;;;4968024;28;20598;-67
2023/04/12 09:47:39;;;;;;;7.47;1.70;;;12.30;84.80;;;;;;4969947;28;20316;-72
2023/04/12 09:50:06;;;;;;;4.43;1.67;;;12.40;82.80;;;;;;4970111;28;20199;-69
2023/04/12 09:52:39;;;;;;;2.53;1.37;;;12.50;81.30;;;;;;4976942;28;20914;-69
2023/04/12 09:55:09;;;;;;;3.20;1.73;;;12.60;80.20;;;;;;4969362;28;20208;-69
2023/04/12 09:57:38;;;;;;;1.57;1.13;;;12.80;81.40;;;;;;4978382;28;20222;-69
2023/04/12 10:00:11;;;;;;;3.03;1.47;;;13.00;81.70;;;;;;4965553;28;20205;-68
2023/04/12 10:02:40;;;;;;;3.17;1.50;;;13.20;80.20;;;;;;4953878;28;20212;-69
2023/04/12 10:05:06;;;;;;;6.53;2.07;;;13.40;79.40;;;;;;4971463;28;20212;-68
2023/04/12 10:07:36;;;;;;;6.73;1.70;;;13.60;80.30;;;;;;4967108;28;20224;-68
2023/04/12 10:10:04;;;;;;;5.77;2.03;;;13.70;75.30;;;;;;4968159;28;20216;-68
2023/04/12 10:12:30;;;;;;;4.87;2.37;;;13.80;74.30;;;;;;4968871;28;20680;-66
2023/04/12 10:14:56;;;;;;;2.50;1.40;;;13.90;72.50;;;;;;4968877;28;20239;-67
2023/04/12 10:17:24;;;;;;;2.73;1.10;;;14.00;73.30;;;;;;4969609;28;20207;-68
2023/04/12 10:19:51;;;;;;;1.93;1.33;;;14.20;71.80;;;;;;4968851;28;20201;-67
2023/04/12 10:22:17;;;;;;;2.17;1.90;;;14.20;72.30;;;;;;4966647;28;20402;-68
2023/04/12 10:24:42;;;;;;;3.23;1.70;;;14.40;70.50;;;;;;4969700;28;20672;-68
2023/04/12 10:27:09;;;;;;;2.80;1.43;;;14.50;70.10;;;;;;4966550;28;20205;-69
2023/04/12 10:29:37;;;;;;;4.23;1.73;;;14.70;69.80;;;;;;4966937;28;20217;-68
2023/04/12 10:32:21;;;;;;;5.00;2.10;;;14.80;68.60;;;;;;4968676;28;20299;-67
2023/04/12 10:34:55;;;;;;;2.90;1.43;;;14.90;68.20;;;;;;4967130;28;20683;-68
2023/04/12 10:37:20;;;;;;;2.17;1.23;;;14.80;66.00;;;;;;4965028;28;20210;-68
2023/04/12 10:39:53;;;;;;;2.87;1.53;;;14.90;65.60;;;;;;4967837;28;20551;-73
2023/04/12 10:42:26;;;;;;;2.83;1.20;;;15.00;66.20;;;;;;4968155;28;20201;-67
2023/04/12 10:44:54;;;;;;;4.50;1.73;;;15.00;64.20;;;;;;4968464;28;20202;-67
2023/04/12 10:47:47;;;;;;;4.03;1.63;;;15.20;64.60;;;;;;4966965;28;20193;-67
2023/04/12 10:50:24;;;;;;;7.23;1.67;;;15.30;63.20;;;;;;4968373;28;20236;-67
2023/04/12 10:53:09;;;;;;;1.57;1.47;;;15.30;62.70;;;;;;4968658;28;20204;-76
2023/04/12 10:55:35;;;;;;;3.03;1.67;;;15.50;62.90;;;;;;4970351;28;20247;-66
2023/04/12 10:58:01;;;;;;;3.63;1.90;;;15.60;62.20;;;;;;4967736;28;20216;-66
2023/04/12 11:00:55;;;;;;;3.30;1.70;;;15.60;61.30;;;;;;4968418;28;20211;-66
2023/04/12 11:03:21;;;;;;;3.80;2.00;;;15.80;61.00;;;;;;4969041;28;20348;-64
2023/04/12 11:06:03;;;;;;;5.23;1.60;;;16.10;61.30;;;;;;4968291;28;20215;-66
2023/04/12 11:08:30;;;;;;;7.80;1.93;;;16.20;59.40;;;;;;4967649;28;20299;-67
2023/04/12 11:11:03;;;;;;;4.43;1.77;;;16.20;59.10;;;;;;4966894;28;20200;-67
2023/04/12 11:13:35;;;;;;;2.70;1.33;;;16.40;59.80;;;;;;4963463;28;20280;-68
2023/04/12 11:16:05;;;;;;;2.97;1.50;;;16.60;59.90;;;;;;4966825;28;20691;-66
2023/04/12 11:18:33;;;;;;;1.70;1.50;;;16.60;59.30;;;;;;4968259;28;20262;-77
2023/04/12 11:21:01;;;;;;;4.67;1.57;;;16.80;58.60;;;;;;4969355;28;20201;-67
2023/04/12 11:23:27;;;;;;;3.77;1.47;;;17.00;57.50;;;;;;4966971;28;20572;-66
2023/04/12 11:25:53;;;;;;;5.40;1.73;;;17.10;56.10;;;;;;4965636;28;20284;-66
2023/04/12 11:28:19;;;;;;;6.13;1.43;;;17.10;56.10;;;;;;4950403;28;20690;-70
2023/04/12 11:30:52;;;;;;;3.43;1.83;;;17.40;56.50;;;;;;4968392;28;20200;-66
2023/04/12 11:33:35;;;;;;;4.27;1.77;;;17.80;56.10;;;;;;4967854;28;20237;-65
2023/04/12 11:36:11;;;;;;;3.03;1.27;;;18.20;54.80;;;;;;4969076;28;20557;-66
2023/04/12 11:38:37;;;;;;;4.30;2.37;;;18.10;53.00;;;;;;4966508;28;20702;-65
2023/04/12 11:41:05;;;;;;;2.80;1.70;;;18.40;54.00;;;;;;4968487;28;20207;-67
2023/04/12 11:43:37;;;;;;;5.67;1.50;;;18.60;52.60;;;;;;4966056;28;20284;-67
2023/04/12 11:46:03;;;;;;;3.20;1.83;;;18.90;52.00;;;;;;4966367;28;20204;-66
2023/04/12 11:48:29;;;;;;;3.20;1.43;;;18.60;50.20;;;;;;4965686;28;20203;-66
2023/04/12 11:50:56;;;;;;;2.50;1.40;;;18.70;51.50;;;;;;4964708;28;20564;-68
2023/04/12 11:53:26;;;;;;;1.83;1.27;;;19.20;51.80;;;;;;4967521;28;20549;-68
2023/04/12 11:55:55;;;;;;;1.97;1.33;;;19.30;49.10;;;;;;4968312;28;20265;-68
2023/04/12 11:58:27;;;;;;;1.50;1.17;;;18.90;49.30;;;;;;4966855;28;20704;-68
2023/04/12 12:00:55;;;;;;;2.80;1.70;;;18.90;49.50;;;;;;4965422;28;20186;-73
2023/04/12 12:03:21;;;;;;;5.03;1.23;;;18.70;49.40;;;;;;4967883;28;20669;-68
2023/04/12 12:05:47;;;;;;;3.27;1.57;;;18.90;48.60;;;;;;4969132;28;20209;-68
2023/04/12 12:08:13;;;;;;;2.60;1.30;;;18.80;49.00;;;;;;4965683;28;20228;-69
2023/04/12 12:10:39;;;;;;;4.70;2.07;;;18.50;48.00;;;;;;4967616;28;20557;-68
2023/04/12 12:13:12;;;;;;;3.87;1.43;;;18.30;48.50;;;;;;4963642;28;20193;-68
2023/04/12 12:15:37;;;;;;;2.90;1.33;;;18.00;48.40;;;;;;4966799;28;20311;-69
2023/04/12 12:18:07;;;;;;;2.23;1.47;;;17.90;49.20;;;;;;4965341;28;20220;-68
2023/04/12 12:20:37;;;;;;;2.37;1.47;;;17.70;48.90;;;;;;4978977;28;20683;-73
2023/04/12 12:23:03;;;;;;;3.80;1.50;;;17.40;48.90;;;;;;4965447;28;20201;-66
2023/04/12 12:25:28;;;;;;;3.63;1.63;;;17.50;49.40;;;;;;4967554;28;20207;-66
2023/04/12 12:27:56;;;;;;;3.60;1.40;;;17.50;49.00;;;;;;4967654;28;20208;-69
2023/04/12 12:30:22;;;;;;;2.37;1.40;;;17.60;49.30;;;;;;4966291;28;20207;-65
2023/04/12 12:32:51;;;;;;;3.00;1.50;;;17.70;48.30;;;;;;4966120;28;20233;-68
2023/04/12 12:35:18;;;;;;;4.73;1.60;;;17.90;48.40;;;;;;4952106;28;20203;-76
2023/04/12 12:37:54;;;;;;;2.47;1.10;;;18.30;49.80;;;;;;4962819;28;20217;-76
2023/04/12 12:40:30;;;;;;;2.47;1.30;;;18.30;47.50;;;;;;4964329;28;20891;-76
2023/04/12 12:42:55;;;;;;;4.70;1.90;;;18.10;48.90;;;;;;4966337;28;20198;-75
2023/04/12 12:45:23;;;;;;;4.27;1.83;;;18.10;48.50;;;;;;4967415;28;20200;-81
2023/04/12 12:47:57;;;;;;;3.83;1.47;;;18.10;48.50;;;;;;4969442;28;20205;-80
2023/04/12 12:50:24;;;;;;;4.53;1.80;;;17.80;48.20;;;;;;4966314;28;20193;-76
2023/04/12 12:52:51;;;;;;;1.93;1.37;;;17.50;48.70;;;;;;4965357;28;20272;-76
2023/04/12 12:55:17;;;;;;;2.43;1.33;;;17.00;49.00;;;;;;4969969;28;20200;-76